sensor_id;sensor_type;location;lat;lon;timestamp;temperature;humidity
78788;DHT22;68131;52.508;5.502;2024-02-16T00:01:30;13.20;72.60
78788;DHT22;68131;52.508;5.502;2024-02-16T00:03:59;13.20;72.60
78788;DHT22;68131;52.508;5.502;2024-02-16T00:06:32;13.20;72.50
78788;DHT22;68131;52.508;5.502;2024-02-16T00:09:05;13.20;72.60
78788;DHT22;68131;52.508;5.502;2024-02-16T00:11:36;13.10;72.70
78788;DHT22;68131;52.508;5.502;2024-02-16T00:14:08;13.10;72.70
78788;DHT22;68131;52.508;5.502;2024-02-16T00:16:39;13.10;72.80
78788;DHT22;68131;52.508;5.502;2024-02-16T00:19:15;13.10;72.80
78788;DHT22;68131;52.508;5.502;2024-02-16T00:21:46;13.10;72.80
78788;DHT22;68131;52.508;5.502;2024-02-16T00:24:17;13.10;72.90
78788;DHT22;68131;52.508;5.502;2024-02-16T00:26:47;13.10;72.90
78788;DHT22;68131;52.508;5.502;2024-02-16T00:29:16;13.10;73.00
78788;DHT22;68131;52.508;5.502;2024-02-16T00:31:45;13.10;73.10
78788;DHT22;68131;52.508;5.502;2024-02-16T00:34:15;13.10;73.00
78788;DHT22;68131;52.508;5.502;2024-02-16T00:36:46;13.00;73.10
78788;DHT22;68131;52.508;5.502;2024-02-16T00:39:18;13.00;73.10
78788;DHT22;68131;52.508;5.502;2024-02-16T00:41:48;13.00;73.20
78788;DHT22;68131;52.508;5.502;2024-02-16T00:44:17;12.90;73.20
78788;DHT22;68131;52.508;5.502;2024-02-16T00:46:46;12.90;73.20
78788;DHT22;68131;52.508;5.502;2024-02-16T00:49:19;12.90;73.30
78788;DHT22;68131;52.508;5.502;2024-02-16T00:51:51;12.90;73.40
78788;DHT22;68131;52.508;5.502;2024-02-16T00:54:20;12.90;73.40
78788;DHT22;68131;52.508;5.502;2024-02-16T00:56:51;12.90;73.40
78788;DHT22;68131;52.508;5.502;2024-02-16T00:59:21;12.80;73.50
78788;DHT22;68131;52.508;5.502;2024-02-16T01:01:50;12.80;73.60
78788;DHT22;68131;52.508;5.502;2024-02-16T01:04:19;12.80;73.60
78788;DHT22;68131;52.508;5.502;2024-02-16T01:06:51;12.80;73.60
78788;DHT22;68131;52.508;5.502;2024-02-16T01:09:21;12.80;73.70
78788;DHT22;68131;52.508;5.502;2024-02-16T01:11:55;12.80;73.70
78788;DHT22;68131;52.508;5.502;2024-02-16T01:14:24;12.80;73.80
78788;DHT22;68131;52.508;5.502;2024-02-16T01:16:55;12.80;73.80
78788;DHT22;68131;52.508;5.502;2024-02-16T01:19:24;12.70;73.80
78788;DHT22;68131;52.508;5.502;2024-02-16T01:21:58;12.70;73.80
78788;DHT22;68131;52.508;5.502;2024-02-16T01:24:27;12.70;73.80
78788;DHT22;68131;52.508;5.502;2024-02-16T01:26:56;12.70;73.90
78788;DHT22;68131;52.508;5.502;2024-02-16T01:29:28;12.70;73.90
78788;DHT22;68131;52.508;5.502;2024-02-16T01:31:58;12.70;73.80
78788;DHT22;68131;52.508;5.502;2024-02-16T01:34:29;12.60;73.80
78788;DHT22;68131;52.508;5.502;2024-02-16T01:37:02;12.60;73.90
78788;DHT22;68131;52.508;5.502;2024-02-16T01:39:34;12.60;73.90
78788;DHT22;68131;52.508;5.502;2024-02-16T01:42:07;12.60;73.90
78788;DHT22;68131;52.508;5.502;2024-02-16T01:44:38;12.60;74.00
78788;DHT22;68131;52.508;5.502;2024-02-16T01:47:07;12.60;73.90
78788;DHT22;68131;52.508;5.502;2024-02-16T01:49:37;12.60;73.90
78788;DHT22;68131;52.508;5.502;2024-02-16T01:52:09;12.60;74.00
78788;DHT22;68131;52.508;5.502;2024-02-16T01:54:38;12.60;74.00
78788;DHT22;68131;52.508;5.502;2024-02-16T01:57:07;12.60;73.90
78788;DHT22;68131;52.508;5.502;2024-02-16T01:59:37;12.50;73.90
78788;DHT22;68131;52.508;5.502;2024-02-16T02:02:07;12.50;74.00
78788;DHT22;68131;52.508;5.502;2024-02-16T02:04:36;12.50;74.10
78788;DHT22;68131;52.508;5.502;2024-02-16T02:07:14;12.50;74.10
78788;DHT22;68131;52.508;5.502;2024-02-16T02:09:43;12.50;74.10
78788;DHT22;68131;52.508;5.502;2024-02-16T02:12:13;12.50;74.10
78788;DHT22;68131;52.508;5.502;2024-02-16T02:14:42;12.50;74.20
78788;DHT22;68131;52.508;5.502;2024-02-16T02:17:13;12.50;74.20
78788;DHT22;68131;52.508;5.502;2024-02-16T02:19:42;12.40;74.20
78788;DHT22;68131;52.508;5.502;2024-02-16T02:22:16;12.40;74.30
78788;DHT22;68131;52.508;5.502;2024-02-16T02:24:46;12.40;74.30
78788;DHT22;68131;52.508;5.502;2024-02-16T02:27:18;12.30;74.40
78788;DHT22;68131;52.508;5.502;2024-02-16T02:29:47;12.30;74.40
78788;DHT22;68131;52.508;5.502;2024-02-16T02:32:17;12.40;74.50
78788;DHT22;68131;52.508;5.502;2024-02-16T02:34:48;12.30;74.50
78788;DHT22;68131;52.508;5.502;2024-02-16T02:37:20;12.40;74.50
78788;DHT22;68131;52.508;5.502;2024-02-16T02:39:50;12.30;74.60
78788;DHT22;68131;52.508;5.502;2024-02-16T02:42:19;12.30;74.60
78788;DHT22;68131;52.508;5.502;2024-02-16T02:44:48;12.30;74.60
78788;DHT22;68131;52.508;5.502;2024-02-16T02:47:18;12.40;74.70
78788;DHT22;68131;52.508;5.502;2024-02-16T02:49:47;12.40;74.60
78788;DHT22;68131;52.508;5.502;2024-02-16T02:52:20;12.30;74.60
78788;DHT22;68131;52.508;5.502;2024-02-16T02:54:49;12.30;74.60
78788;DHT22;68131;52.508;5.502;2024-02-16T02:57:19;12.30;74.60
78788;DHT22;68131;52.508;5.502;2024-02-16T02:59:48;12.30;74.60
78788;DHT22;68131;52.508;5.502;2024-02-16T03:02:21;12.30;74.40
78788;DHT22;68131;52.508;5.502;2024-02-16T03:04:53;12.30;74.50
78788;DHT22;68131;52.508;5.502;2024-02-16T03:07:27;12.30;74.50
78788;DHT22;68131;52.508;5.502;2024-02-16T03:09:59;12.30;74.50
78788;DHT22;68131;52.508;5.502;2024-02-16T03:12:29;12.30;74.50
78788;DHT22;68131;52.508;5.502;2024-02-16T03:15:00;12.30;74.50
78788;DHT22;68131;52.508;5.502;2024-02-16T03:17:30;12.20;74.50
78788;DHT22;68131;52.508;5.502;2024-02-16T03:19:59;12.20;74.50
78788;DHT22;68131;52.508;5.502;2024-02-16T03:22:31;12.20;74.50
78788;DHT22;68131;52.508;5.502;2024-02-16T03:25:00;12.20;74.60
78788;DHT22;68131;52.508;5.502;2024-02-16T03:27:31;12.20;74.70
78788;DHT22;68131;52.508;5.502;2024-02-16T03:30:00;12.20;74.70
78788;DHT22;68131;52.508;5.502;2024-02-16T03:32:29;12.20;74.70
78788;DHT22;68131;52.508;5.502;2024-02-16T03:34:59;12.20;74.70
78788;DHT22;68131;52.508;5.502;2024-02-16T03:37:32;12.20;74.70
78788;DHT22;68131;52.508;5.502;2024-02-16T03:40:04;12.20;74.70
78788;DHT22;68131;52.508;5.502;2024-02-16T03:42:37;12.20;74.80
78788;DHT22;68131;52.508;5.502;2024-02-16T03:45:08;12.20;74.80
78788;DHT22;68131;52.508;5.502;2024-02-16T03:47:37;12.20;74.60
78788;DHT22;68131;52.508;5.502;2024-02-16T03:50:09;12.20;74.60
78788;DHT22;68131;52.508;5.502;2024-02-16T03:52:43;12.20;74.60
78788;DHT22;68131;52.508;5.502;2024-02-16T03:55:12;12.20;74.60
78788;DHT22;68131;52.508;5.502;2024-02-16T03:57:43;12.20;74.60
78788;DHT22;68131;52.508;5.502;2024-02-16T04:00:15;12.20;74.50
78788;DHT22;68131;52.508;5.502;2024-02-16T04:02:46;12.10;74.50
78788;DHT22;68131;52.508;5.502;2024-02-16T04:05:17;12.10;74.50
78788;DHT22;68131;52.508;5.502;2024-02-16T04:07:49;12.10;74.50
78788;DHT22;68131;52.508;5.502;2024-02-16T04:10:18;12.10;74.60
78788;DHT22;68131;52.508;5.502;2024-02-16T04:12:47;12.10;74.60
78788;DHT22;68131;52.508;5.502;2024-02-16T04:15:17;12.10;74.60
78788;DHT22;68131;52.508;5.502;2024-02-16T04:17:48;12.00;74.60
78788;DHT22;68131;52.508;5.502;2024-02-16T04:20:18;12.00;74.70
78788;DHT22;68131;52.508;5.502;2024-02-16T04:22:50;12.00;74.70
78788;DHT22;68131;52.508;5.502;2024-02-16T04:25:19;12.10;74.70
78788;DHT22;68131;52.508;5.502;2024-02-16T04:27:48;12.10;74.70
78788;DHT22;68131;52.508;5.502;2024-02-16T04:30:17;12.10;74.70
78788;DHT22;68131;52.508;5.502;2024-02-16T04:32:47;12.10;74.60
78788;DHT22;68131;52.508;5.502;2024-02-16T04:35:17;12.10;74.60
78788;DHT22;68131;52.508;5.502;2024-02-16T04:37:48;12.10;74.60
78788;DHT22;68131;52.508;5.502;2024-02-16T04:40:18;12.10;74.60
78788;DHT22;68131;52.508;5.502;2024-02-16T04:42:47;12.10;74.50
78788;DHT22;68131;52.508;5.502;2024-02-16T04:45:17;12.10;74.50
78788;DHT22;68131;52.508;5.502;2024-02-16T04:47:46;12.10;74.60
78788;DHT22;68131;52.508;5.502;2024-02-16T04:50:15;12.10;74.50
78788;DHT22;68131;52.508;5.502;2024-02-16T04:52:44;12.10;74.40
78788;DHT22;68131;52.508;5.502;2024-02-16T04:55:16;12.10;74.50
78788;DHT22;68131;52.508;5.502;2024-02-16T04:57:47;12.20;74.40
78788;DHT22;68131;52.508;5.502;2024-02-16T05:00:21;12.20;74.40
78788;DHT22;68131;52.508;5.502;2024-02-16T05:02:50;12.20;74.40
78788;DHT22;68131;52.508;5.502;2024-02-16T05:05:20;12.20;74.40
78788;DHT22;68131;52.508;5.502;2024-02-16T05:07:51;12.20;74.30
78788;DHT22;68131;52.508;5.502;2024-02-16T05:10:24;12.20;74.40
78788;DHT22;68131;52.508;5.502;2024-02-16T05:12:54;12.20;74.30
78788;DHT22;68131;52.508;5.502;2024-02-16T05:15:24;12.20;74.20
78788;DHT22;68131;52.508;5.502;2024-02-16T05:17:53;12.20;74.20
78788;DHT22;68131;52.508;5.502;2024-02-16T05:20:24;12.20;74.10
78788;DHT22;68131;52.508;5.502;2024-02-16T05:22:54;12.20;74.10
78788;DHT22;68131;52.508;5.502;2024-02-16T05:25:25;12.20;74.20
78788;DHT22;68131;52.508;5.502;2024-02-16T05:27:54;12.20;74.10
78788;DHT22;68131;52.508;5.502;2024-02-16T05:30:24;12.30;74.10
78788;DHT22;68131;52.508;5.502;2024-02-16T05:32:56;12.20;74.00
78788;DHT22;68131;52.508;5.502;2024-02-16T05:35:27;12.30;74.00
78788;DHT22;68131;52.508;5.502;2024-02-16T05:38:00;12.30;73.90
78788;DHT22;68131;52.508;5.502;2024-02-16T05:40:36;12.20;73.90
78788;DHT22;68131;52.508;5.502;2024-02-16T05:43:20;12.30;73.90
78788;DHT22;68131;52.508;5.502;2024-02-16T05:45:52;12.20;73.90
78788;DHT22;68131;52.508;5.502;2024-02-16T05:48:22;12.20;73.80
78788;DHT22;68131;52.508;5.502;2024-02-16T05:50:53;12.20;73.90
78788;DHT22;68131;52.508;5.502;2024-02-16T05:53:27;12.20;74.00
78788;DHT22;68131;52.508;5.502;2024-02-16T05:56:00;12.20;73.80
78788;DHT22;68131;52.508;5.502;2024-02-16T05:58:29;12.20;74.00
78788;DHT22;68131;52.508;5.502;2024-02-16T06:01:00;12.10;73.90
78788;DHT22;68131;52.508;5.502;2024-02-16T06:03:30;12.20;73.90
78788;DHT22;68131;52.508;5.502;2024-02-16T06:05:59;12.10;74.10
78788;DHT22;68131;52.508;5.502;2024-02-16T06:08:28;12.20;74.00
78788;DHT22;68131;52.508;5.502;2024-02-16T06:11:00;12.10;74.10
78788;DHT22;68131;52.508;5.502;2024-02-16T06:13:30;12.10;74.10
78788;DHT22;68131;52.508;5.502;2024-02-16T06:15:59;12.10;74.20
78788;DHT22;68131;52.508;5.502;2024-02-16T06:18:28;12.10;74.20
78788;DHT22;68131;52.508;5.502;2024-02-16T06:20:58;12.10;74.20
78788;DHT22;68131;52.508;5.502;2024-02-16T06:23:27;12.10;74.10
78788;DHT22;68131;52.508;5.502;2024-02-16T06:25:56;12.10;74.20
78788;DHT22;68131;52.508;5.502;2024-02-16T06:28:28;12.10;74.20
78788;DHT22;68131;52.508;5.502;2024-02-16T06:30:58;12.10;74.30
78788;DHT22;68131;52.508;5.502;2024-02-16T06:33:27;12.10;74.30
78788;DHT22;68131;52.508;5.502;2024-02-16T06:35:57;12.10;74.40
78788;DHT22;68131;52.508;5.502;2024-02-16T06:38:26;12.10;74.40
78788;DHT22;68131;52.508;5.502;2024-02-16T06:40:55;12.10;74.40
78788;DHT22;68131;52.508;5.502;2024-02-16T06:43:28;12.10;74.40
78788;DHT22;68131;52.508;5.502;2024-02-16T06:46:00;12.10;74.30
78788;DHT22;68131;52.508;5.502;2024-02-16T06:48:29;12.10;74.40
78788;DHT22;68131;52.508;5.502;2024-02-16T06:51:00;12.20;74.40
78788;DHT22;68131;52.508;5.502;2024-02-16T06:53:29;12.20;74.40
78788;DHT22;68131;52.508;5.502;2024-02-16T06:55:58;12.20;74.40
78788;DHT22;68131;52.508;5.502;2024-02-16T06:58:30;12.20;74.40
78788;DHT22;68131;52.508;5.502;2024-02-16T07:01:00;12.20;74.40
78788;DHT22;68131;52.508;5.502;2024-02-16T07:03:31;12.20;74.50
78788;DHT22;68131;52.508;5.502;2024-02-16T07:06:03;12.20;74.50
78788;DHT22;68131;52.508;5.502;2024-02-16T07:08:37;12.20;74.50
78788;DHT22;68131;52.508;5.502;2024-02-16T07:11:07;12.30;74.60
78788;DHT22;68131;52.508;5.502;2024-02-16T07:13:40;12.30;74.50
78788;DHT22;68131;52.508;5.502;2024-02-16T07:16:13;12.30;74.50
78788;DHT22;68131;52.508;5.502;2024-02-16T07:18:43;12.40;74.60
78788;DHT22;68131;52.508;5.502;2024-02-16T07:21:15;12.40;74.50
78788;DHT22;68131;52.508;5.502;2024-02-16T07:23:46;12.40;74.50
78788;DHT22;68131;52.508;5.502;2024-02-16T07:26:17;12.40;74.60
78788;DHT22;68131;52.508;5.502;2024-02-16T07:28:49;12.40;74.50
78788;DHT22;68131;52.508;5.502;2024-02-16T07:31:18;12.50;74.50
78788;DHT22;68131;52.508;5.502;2024-02-16T07:33:47;12.50;74.60
78788;DHT22;68131;52.508;5.502;2024-02-16T07:36:16;12.50;74.50
78788;DHT22;68131;52.508;5.502;2024-02-16T07:38:46;12.50;74.60
78788;DHT22;68131;52.508;5.502;2024-02-16T07:41:15;12.50;74.60
78788;DHT22;68131;52.508;5.502;2024-02-16T07:43:44;12.50;74.60
78788;DHT22;68131;52.508;5.502;2024-02-16T07:46:16;12.50;74.70
78788;DHT22;68131;52.508;5.502;2024-02-16T07:48:45;12.60;74.70
78788;DHT22;68131;52.508;5.502;2024-02-16T07:51:14;12.60;74.60
78788;DHT22;68131;52.508;5.502;2024-02-16T07:53:50;12.60;74.60
78788;DHT22;68131;52.508;5.502;2024-02-16T07:56:19;12.60;74.70
78788;DHT22;68131;52.508;5.502;2024-02-16T07:58:49;12.70;74.70
78788;DHT22;68131;52.508;5.502;2024-02-16T08:01:22;12.70;74.70
78788;DHT22;68131;52.508;5.502;2024-02-16T08:03:51;12.70;74.70
78788;DHT22;68131;52.508;5.502;2024-02-16T08:06:25;12.80;74.60
78788;DHT22;68131;52.508;5.502;2024-02-16T08:08:54;12.80;74.60
78788;DHT22;68131;52.508;5.502;2024-02-16T08:11:23;12.80;74.60
78788;DHT22;68131;52.508;5.502;2024-02-16T08:13:53;12.80;74.60
78788;DHT22;68131;52.508;5.502;2024-02-16T08:16:29;12.90;74.50
78788;DHT22;68131;52.508;5.502;2024-02-16T08:19:01;12.90;74.60
78788;DHT22;68131;52.508;5.502;2024-02-16T08:21:40;12.90;74.60
78788;DHT22;68131;52.508;5.502;2024-02-16T08:24:09;13.00;74.60
78788;DHT22;68131;52.508;5.502;2024-02-16T08:26:39;13.00;74.60
78788;DHT22;68131;52.508;5.502;2024-02-16T08:29:08;13.00;74.60
78788;DHT22;68131;52.508;5.502;2024-02-16T08:31:40;13.00;74.60
78788;DHT22;68131;52.508;5.502;2024-02-16T08:34:10;13.00;74.60
78788;DHT22;68131;52.508;5.502;2024-02-16T08:36:39;13.10;74.60
78788;DHT22;68131;52.508;5.502;2024-02-16T08:39:08;13.10;74.60
78788;DHT22;68131;52.508;5.502;2024-02-16T08:41:37;13.10;74.60
78788;DHT22;68131;52.508;5.502;2024-02-16T08:44:07;13.10;74.70
78788;DHT22;68131;52.508;5.502;2024-02-16T08:46:39;13.20;74.60
78788;DHT22;68131;52.508;5.502;2024-02-16T08:49:08;13.20;74.60
78788;DHT22;68131;52.508;5.502;2024-02-16T08:51:38;13.20;74.60
78788;DHT22;68131;52.508;5.502;2024-02-16T08:54:07;13.30;74.60
78788;DHT22;68131;52.508;5.502;2024-02-16T08:56:36;13.40;74.60
78788;DHT22;68131;52.508;5.502;2024-02-16T08:59:05;13.40;74.50
78788;DHT22;68131;52.508;5.502;2024-02-16T09:01:39;13.50;74.40
78788;DHT22;68131;52.508;5.502;2024-02-16T09:04:09;13.50;74.40
78788;DHT22;68131;52.508;5.502;2024-02-16T09:06:38;13.60;74.30
78788;DHT22;68131;52.508;5.502;2024-02-16T09:09:08;13.60;74.40
78788;DHT22;68131;52.508;5.502;2024-02-16T09:11:37;13.70;74.20
78788;DHT22;68131;52.508;5.502;2024-02-16T09:14:06;13.80;74.10
78788;DHT22;68131;52.508;5.502;2024-02-16T09:16:35;13.80;74.10
78788;DHT22;68131;52.508;5.502;2024-02-16T09:19:07;13.90;73.90
78788;DHT22;68131;52.508;5.502;2024-02-16T09:21:36;13.90;73.80
78788;DHT22;68131;52.508;5.502;2024-02-16T09:24:08;14.00;73.70
78788;DHT22;68131;52.508;5.502;2024-02-16T09:26:44;14.00;73.50
78788;DHT22;68131;52.508;5.502;2024-02-16T09:29:14;14.00;73.40
78788;DHT22;68131;52.508;5.502;2024-02-16T09:31:44;14.10;73.30
78788;DHT22;68131;52.508;5.502;2024-02-16T09:34:17;14.10;73.30
78788;DHT22;68131;52.508;5.502;2024-02-16T09:36:46;14.10;73.30
78788;DHT22;68131;52.508;5.502;2024-02-16T09:39:17;14.20;73.30
78788;DHT22;68131;52.508;5.502;2024-02-16T09:41:50;14.20;73.20
78788;DHT22;68131;52.508;5.502;2024-02-16T09:44:20;14.20;73.30
78788;DHT22;68131;52.508;5.502;2024-02-16T09:46:54;14.20;73.20
78788;DHT22;68131;52.508;5.502;2024-02-16T09:49:27;14.20;73.20
78788;DHT22;68131;52.508;5.502;2024-02-16T09:52:00;14.20;73.30
78788;DHT22;68131;52.508;5.502;2024-02-16T09:54:42;14.10;73.50
78788;DHT22;68131;52.508;5.502;2024-02-16T09:57:19;14.10;73.60
78788;DHT22;68131;52.508;5.502;2024-02-16T09:59:51;14.10;73.80
78788;DHT22;68131;52.508;5.502;2024-02-16T10:02:22;14.10;73.90
78788;DHT22;68131;52.508;5.502;2024-02-16T10:04:54;14.00;73.90
78788;DHT22;68131;52.508;5.502;2024-02-16T10:07:31;14.00;74.00
78788;DHT22;68131;52.508;5.502;2024-02-16T10:10:00;14.00;74.20
78788;DHT22;68131;52.508;5.502;2024-02-16T10:12:31;14.00;74.30
78788;DHT22;68131;52.508;5.502;2024-02-16T10:15:00;14.00;74.30
78788;DHT22;68131;52.508;5.502;2024-02-16T10:17:30;14.00;74.40
78788;DHT22;68131;52.508;5.502;2024-02-16T10:20:04;13.90;74.50
78788;DHT22;68131;52.508;5.502;2024-02-16T10:22:36;13.90;74.60
78788;DHT22;68131;52.508;5.502;2024-02-16T10:25:09;13.90;74.70
78788;DHT22;68131;52.508;5.502;2024-02-16T10:27:41;13.90;74.80
78788;DHT22;68131;52.508;5.502;2024-02-16T10:30:10;13.80;74.90
78788;DHT22;68131;52.508;5.502;2024-02-16T10:32:41;13.80;75.00
78788;DHT22;68131;52.508;5.502;2024-02-16T10:35:16;13.80;75.10
78788;DHT22;68131;52.508;5.502;2024-02-16T10:37:45;13.70;75.10
78788;DHT22;68131;52.508;5.502;2024-02-16T10:40:16;13.60;75.30
78788;DHT22;68131;52.508;5.502;2024-02-16T10:42:48;13.60;75.50
78788;DHT22;68131;52.508;5.502;2024-02-16T10:45:18;13.50;75.70
78788;DHT22;68131;52.508;5.502;2024-02-16T10:47:49;13.50;76.00
78788;DHT22;68131;52.508;5.502;2024-02-16T10:50:23;13.40;76.50
78788;DHT22;68131;52.508;5.502;2024-02-16T10:52:54;13.20;76.80
78788;DHT22;68131;52.508;5.502;2024-02-16T10:55:24;13.20;77.10
78788;DHT22;68131;52.508;5.502;2024-02-16T10:57:56;13.10;77.50
78788;DHT22;68131;52.508;5.502;2024-02-16T11:00:26;13.00;77.70
78788;DHT22;68131;52.508;5.502;2024-02-16T11:02:57;12.90;77.90
78788;DHT22;68131;52.508;5.502;2024-02-16T11:05:39;12.90;78.20
78788;DHT22;68131;52.508;5.502;2024-02-16T11:08:12;12.80;78.40
78788;DHT22;68131;52.508;5.502;2024-02-16T11:10:54;12.80;78.50
78788;DHT22;68131;52.508;5.502;2024-02-16T11:13:24;12.80;78.70
78788;DHT22;68131;52.508;5.502;2024-02-16T11:15:57;12.70;78.90
78788;DHT22;68131;52.508;5.502;2024-02-16T11:18:29;12.70;78.90
78788;DHT22;68131;52.508;5.502;2024-02-16T11:21:03;12.70;79.00
78788;DHT22;68131;52.508;5.502;2024-02-16T11:23:35;12.70;79.10
78788;DHT22;68131;52.508;5.502;2024-02-16T11:26:09;12.70;79.10
78788;DHT22;68131;52.508;5.502;2024-02-16T11:28:41;12.70;79.20
78788;DHT22;68131;52.508;5.502;2024-02-16T11:31:12;12.70;79.10
78788;DHT22;68131;52.508;5.502;2024-02-16T11:33:45;12.80;79.20
78788;DHT22;68131;52.508;5.502;2024-02-16T11:36:16;12.80;79.40
78788;DHT22;68131;52.508;5.502;2024-02-16T11:38:46;12.80;79.60
78788;DHT22;68131;52.508;5.502;2024-02-16T11:41:15;12.80;79.60
78788;DHT22;68131;52.508;5.502;2024-02-16T11:43:44;12.90;79.50
78788;DHT22;68131;52.508;5.502;2024-02-16T11:46:18;12.90;79.50
78788;DHT22;68131;52.508;5.502;2024-02-16T11:48:47;12.90;79.40
78788;DHT22;68131;52.508;5.502;2024-02-16T11:51:19;12.90;79.40
78788;DHT22;68131;52.508;5.502;2024-02-16T11:53:55;12.80;79.50
78788;DHT22;68131;52.508;5.502;2024-02-16T11:56:27;12.80;79.60
78788;DHT22;68131;52.508;5.502;2024-02-16T11:58:56;12.80;79.60
78788;DHT22;68131;52.508;5.502;2024-02-16T12:01:25;12.80;79.70
78788;DHT22;68131;52.508;5.502;2024-02-16T12:03:55;12.80;79.70
78788;DHT22;68131;52.508;5.502;2024-02-16T12:06:29;12.80;79.60
78788;DHT22;68131;52.508;5.502;2024-02-16T12:08:59;12.80;79.70
78788;DHT22;68131;52.508;5.502;2024-02-16T12:11:28;12.80;79.80
78788;DHT22;68131;52.508;5.502;2024-02-16T12:13:57;12.80;79.90
78788;DHT22;68131;52.508;5.502;2024-02-16T12:16:29;12.80;79.80
78788;DHT22;68131;52.508;5.502;2024-02-16T12:19:03;12.80;79.80
78788;DHT22;68131;52.508;5.502;2024-02-16T12:21:35;12.80;79.90
78788;DHT22;68131;52.508;5.502;2024-02-16T12:24:04;12.80;79.90
78788;DHT22;68131;52.508;5.502;2024-02-16T12:26:34;12.70;79.90
78788;DHT22;68131;52.508;5.502;2024-02-16T12:29:05;12.70;79.90
78788;DHT22;68131;52.508;5.502;2024-02-16T12:31:34;12.70;79.90
78788;DHT22;68131;52.508;5.502;2024-02-16T12:34:05;12.70;80.10
78788;DHT22;68131;52.508;5.502;2024-02-16T12:36:37;12.70;80.00
78788;DHT22;68131;52.508;5.502;2024-02-16T12:39:07;12.70;80.10
78788;DHT22;68131;52.508;5.502;2024-02-16T12:41:38;12.70;80.10
78788;DHT22;68131;52.508;5.502;2024-02-16T12:44:09;12.70;80.10
78788;DHT22;68131;52.508;5.502;2024-02-16T12:46:40;12.80;80.10
78788;DHT22;68131;52.508;5.502;2024-02-16T12:49:09;12.80;80.10
78788;DHT22;68131;52.508;5.502;2024-02-16T12:51:42;12.90;80.10
78788;DHT22;68131;52.508;5.502;2024-02-16T12:54:11;12.90;80.00
78788;DHT22;68131;52.508;5.502;2024-02-16T12:56:45;12.90;80.00
78788;DHT22;68131;52.508;5.502;2024-02-16T12:59:17;13.00;80.00
78788;DHT22;68131;52.508;5.502;2024-02-16T13:01:49;13.00;80.00
78788;DHT22;68131;52.508;5.502;2024-02-16T13:04:18;13.00;80.00
78788;DHT22;68131;52.508;5.502;2024-02-16T13:06:52;13.10;80.10
78788;DHT22;68131;52.508;5.502;2024-02-16T13:09:21;13.20;79.90
78788;DHT22;68131;52.508;5.502;2024-02-16T13:11:50;13.20;79.80
78788;DHT22;68131;52.508;5.502;2024-02-16T13:14:21;13.30;79.70
78788;DHT22;68131;52.508;5.502;2024-02-16T13:16:50;13.30;79.70
78788;DHT22;68131;52.508;5.502;2024-02-16T13:19:22;13.30;79.60
78788;DHT22;68131;52.508;5.502;2024-02-16T13:21:54;13.30;79.50
78788;DHT22;68131;52.508;5.502;2024-02-16T13:24:23;13.20;79.60
78788;DHT22;68131;52.508;5.502;2024-02-16T13:26:55;13.20;79.60
78788;DHT22;68131;52.508;5.502;2024-02-16T13:29:24;13.20;79.50
78788;DHT22;68131;52.508;5.502;2024-02-16T13:31:53;13.10;79.70
78788;DHT22;68131;52.508;5.502;2024-02-16T13:34:22;13.10;79.80
78788;DHT22;68131;52.508;5.502;2024-02-16T13:36:56;13.10;79.60
78788;DHT22;68131;52.508;5.502;2024-02-16T13:39:25;13.10;79.60
78788;DHT22;68131;52.508;5.502;2024-02-16T13:41:54;13.10;79.60
78788;DHT22;68131;52.508;5.502;2024-02-16T13:44:25;13.10;79.70
78788;DHT22;68131;52.508;5.502;2024-02-16T13:46:54;13.10;79.50
78788;DHT22;68131;52.508;5.502;2024-02-16T13:49:23;13.10;79.50
78788;DHT22;68131;52.508;5.502;2024-02-16T13:51:55;13.00;79.50
78788;DHT22;68131;52.508;5.502;2024-02-16T13:54:25;13.00;79.40
78788;DHT22;68131;52.508;5.502;2024-02-16T13:56:54;13.00;79.40
78788;DHT22;68131;52.508;5.502;2024-02-16T13:59:23;13.00;79.40
78788;DHT22;68131;52.508;5.502;2024-02-16T14:01:53;13.00;79.30
78788;DHT22;68131;52.508;5.502;2024-02-16T14:04:23;12.90;79.40
78788;DHT22;68131;52.508;5.502;2024-02-16T14:06:55;12.90;79.30
78788;DHT22;68131;52.508;5.502;2024-02-16T14:09:24;12.90;79.40
78788;DHT22;68131;52.508;5.502;2024-02-16T14:11:53;12.90;79.40
78788;DHT22;68131;52.508;5.502;2024-02-16T14:14:25;12.90;79.40
78788;DHT22;68131;52.508;5.502;2024-02-16T14:16:54;12.90;79.30
78788;DHT22;68131;52.508;5.502;2024-02-16T14:19:23;12.80;79.40
78788;DHT22;68131;52.508;5.502;2024-02-16T14:21:55;12.80;79.50
78788;DHT22;68131;52.508;5.502;2024-02-16T14:24:24;12.80;79.50
78788;DHT22;68131;52.508;5.502;2024-02-16T14:26:54;12.80;79.60
78788;DHT22;68131;52.508;5.502;2024-02-16T14:29:23;12.80;79.50
78788;DHT22;68131;52.508;5.502;2024-02-16T14:31:52;12.70;79.80
78788;DHT22;68131;52.508;5.502;2024-02-16T14:34:22;12.70;79.70
78788;DHT22;68131;52.508;5.502;2024-02-16T14:36:51;12.70;79.70
78788;DHT22;68131;52.508;5.502;2024-02-16T14:39:23;12.70;79.80
78788;DHT22;68131;52.508;5.502;2024-02-16T14:41:52;12.70;79.90
78788;DHT22;68131;52.508;5.502;2024-02-16T14:44:21;12.80;79.70
78788;DHT22;68131;52.508;5.502;2024-02-16T14:46:50;12.80;79.80
78788;DHT22;68131;52.508;5.502;2024-02-16T14:49:19;12.80;79.90
78788;DHT22;68131;52.508;5.502;2024-02-16T14:51:50;12.80;79.70
78788;DHT22;68131;52.508;5.502;2024-02-16T14:54:22;12.90;79.60
78788;DHT22;68131;52.508;5.502;2024-02-16T14:56:54;12.80;79.70
78788;DHT22;68131;52.508;5.502;2024-02-16T14:59:23;12.90;79.80
78788;DHT22;68131;52.508;5.502;2024-02-16T15:01:53;12.90;79.80
78788;DHT22;68131;52.508;5.502;2024-02-16T15:04:22;12.90;79.70
78788;DHT22;68131;52.508;5.502;2024-02-16T15:06:51;13.00;79.50
78788;DHT22;68131;52.508;5.502;2024-02-16T15:09:23;13.00;79.40
78788;DHT22;68131;52.508;5.502;2024-02-16T15:11:52;13.00;79.40
78788;DHT22;68131;52.508;5.502;2024-02-16T15:14:21;13.00;79.30
78788;DHT22;68131;52.508;5.502;2024-02-16T15:16:50;13.00;79.30
78788;DHT22;68131;52.508;5.502;2024-02-16T15:19:19;13.00;79.20
78788;DHT22;68131;52.508;5.502;2024-02-16T15:21:48;13.00;79.30
78788;DHT22;68131;52.508;5.502;2024-02-16T15:24:20;13.00;79.20
78788;DHT22;68131;52.508;5.502;2024-02-16T15:26:52;13.00;79.20
78788;DHT22;68131;52.508;5.502;2024-02-16T15:29:21;13.00;79.10
78788;DHT22;68131;52.508;5.502;2024-02-16T15:31:50;13.00;79.20
78788;DHT22;68131;52.508;5.502;2024-02-16T15:34:21;13.10;79.20
78788;DHT22;68131;52.508;5.502;2024-02-16T15:36:51;13.10;79.20
78788;DHT22;68131;52.508;5.502;2024-02-16T15:39:23;13.10;79.10
78788;DHT22;68131;52.508;5.502;2024-02-16T15:41:55;13.10;79.00
78788;DHT22;68131;52.508;5.502;2024-02-16T15:44:24;13.10;79.00
78788;DHT22;68131;52.508;5.502;2024-02-16T15:46:54;13.10;79.00
78788;DHT22;68131;52.508;5.502;2024-02-16T15:49:23;13.00;79.00
78788;DHT22;68131;52.508;5.502;2024-02-16T15:51:52;13.00;79.00